createdAt,value
2023-04-12T00:00:18.090Z,245.8462
2023-04-12T00:01:19.481Z,244.5385
2023-04-12T00:02:22.011Z,243.7692
2023-04-12T00:03:22.579Z,245.6923
2023-04-12T00:04:23.908Z,244.7692
2023-04-12T00:05:25.371Z,244.4615
2023-04-12T00:06:26.513Z,247.3077
2023-04-12T00:07:28.022Z,245.0769
2023-04-12T00:08:29.455Z,248.0000
2023-04-12T00:09:30.844Z,241.3846
2023-04-12T00:10:32.297Z,243.6154
2023-04-12T00:11:33.657Z,244.6923
2023-04-12T00:12:35.124Z,243.9231
2023-04-12T00:13:36.665Z,244.0000
2023-04-12T00:14:37.892Z,246.5385
2023-04-12T00:15:39.493Z,243.9231
2023-04-12T00:16:40.879Z,240.3077
2023-04-12T00:17:42.324Z,242.0000
2023-04-12T00:18:43.593Z,246.2308
2023-04-12T00:19:45.185Z,245.0769
2023-04-12T00:20:46.478Z,246.9231
2023-04-12T00:21:47.943Z,243.1538
2023-04-12T00:22:49.377Z,242.2308
2023-04-12T00:23:50.809Z,244.7692
2023-04-12T00:24:52.173Z,245.7692
2023-04-12T00:25:53.602Z,243.3846
2023-04-12T00:26:55.042Z,239.6923
2023-04-12T00:27:57.254Z,242.1538
2023-04-12T00:28:57.930Z,238.0000
2023-04-12T00:29:59.304Z,241.4615
2023-04-12T00:31:00.693Z,241.6154
2023-04-12T00:32:02.074Z,242.4615
2023-04-12T00:33:03.706Z,239.9231
2023-04-12T00:34:04.936Z,244.3077
2023-04-12T00:35:06.329Z,242.3077
2023-04-12T00:36:07.967Z,240.6154
2023-04-12T00:37:09.263Z,237.6154
2023-04-12T00:38:10.886Z,241.0769
2023-04-12T00:39:11.988Z,240.3077
2023-04-12T00:40:13.431Z,240.5385
2023-04-12T00:41:14.847Z,243.5385
2023-04-12T00:42:16.318Z,245.8462
2023-04-12T00:43:17.740Z,242.0000
2023-04-12T00:44:19.129Z,244.6154
2023-04-12T00:45:20.517Z,239.4615
2023-04-12T00:46:21.904Z,241.7692
2023-04-12T00:47:23.439Z,243.8462
2023-04-12T00:48:24.839Z,239.7692
2023-04-12T00:49:26.287Z,238.6154
2023-04-12T00:50:27.677Z,239.9231
2023-04-12T00:51:29.117Z,238.3077
2023-04-12T00:52:30.515Z,238.3077
2023-04-12T00:53:32.000Z,237.6154
2023-04-12T00:54:33.404Z,243.3077
2023-04-12T00:55:34.794Z,237.0769
2023-04-12T00:56:36.261Z,236.0000
2023-04-12T00:57:37.686Z,239.5385
2023-04-12T00:58:39.095Z,238.5385
2023-04-12T00:59:40.424Z,236.6154
2023-04-12T01:00:41.872Z,236.3077
2023-04-12T01:01:43.440Z,239.3077
2023-04-12T01:02:44.896Z,240.0000
2023-04-12T01:03:46.316Z,236.6923
2023-04-12T01:04:47.614Z,236.6154
2023-04-12T01:05:49.046Z,238.3077
2023-04-12T01:06:50.393Z,235.0769
2023-04-12T01:07:51.931Z,240.3077
2023-04-12T01:08:53.345Z,240.0000
2023-04-12T01:09:54.689Z,241.6154
2023-04-12T01:10:56.234Z,239.4615
2023-04-12T01:11:57.512Z,234.8462
2023-04-12T01:12:58.814Z,234.7692
2023-04-12T01:14:00.492Z,235.7692
2023-04-12T01:15:01.773Z,237.2308
2023-04-12T01:16:03.142Z,238.2308
2023-04-12T01:17:04.608Z,239.3077
2023-04-12T01:18:06.185Z,238.2308
2023-04-12T01:19:07.491Z,242.5385
2023-04-12T01:20:08.814Z,237.6923
2023-04-12T01:21:10.164Z,237.0769
2023-04-12T01:22:11.708Z,233.0769
2023-04-12T01:23:13.157Z,234.6154
2023-04-12T01:24:14.541Z,235.3846
2023-04-12T01:25:15.950Z,233.7692
2023-04-12T01:26:17.425Z,238.0769
2023-04-12T01:27:18.797Z,232.6154
2023-04-12T01:28:20.223Z,234.6923
2023-04-12T01:29:21.664Z,234.7692
2023-04-12T01:30:23.108Z,234.0000
2023-04-12T01:31:24.505Z,238.1538
2023-04-12T01:32:25.952Z,235.7692
2023-04-12T01:33:27.341Z,235.2308
2023-04-12T01:34:28.962Z,233.4615
2023-04-12T01:35:30.250Z,233.3077
2023-04-12T01:36:31.634Z,235.1538
2023-04-12T01:37:33.009Z,235.1538
2023-04-12T01:38:34.344Z,234.1538
2023-04-12T01:39:35.942Z,235.0769
2023-04-12T01:40:37.309Z,234.6923
2023-04-12T01:41:38.730Z,231.3077
2023-04-12T01:42:40.186Z,233.6923
2023-04-12T01:43:41.707Z,230.5385
2023-04-12T01:44:43.191Z,232.6154
2023-04-12T01:45:44.578Z,234.4615
2023-04-12T01:46:45.945Z,234.9231
2023-04-12T01:47:47.445Z,233.4615
2023-04-12T01:48:48.806Z,231.3077
2023-04-12T01:49:50.297Z,234.2308
2023-04-12T01:50:51.660Z,229.6923
2023-04-12T01:51:53.056Z,234.6923
2023-04-12T01:52:54.590Z,232.0769
2023-04-12T01:53:56.224Z,230.3846
2023-04-12T01:54:57.339Z,229.2308
2023-04-12T01:55:58.779Z,232.7692
2023-04-12T01:57:00.208Z,233.9231
2023-04-12T01:58:01.614Z,231.0000
2023-04-12T01:59:03.069Z,232.2308
2023-04-12T02:00:04.490Z,232.1538
2023-04-12T02:01:05.973Z,226.7692
2023-04-12T02:02:07.357Z,230.5385
2023-04-12T02:03:08.945Z,224.3846
2023-04-12T02:04:10.204Z,228.6923
2023-04-12T02:05:11.610Z,231.7692
2023-04-12T02:06:13.069Z,231.6923
2023-04-12T02:07:14.500Z,232.0769
2023-04-12T02:08:15.936Z,227.9231
2023-04-12T02:09:17.273Z,231.9231
2023-04-12T02:10:18.673Z,232.0000
2023-04-12T02:11:20.167Z,226.3077
2023-04-12T02:12:21.598Z,231.4615
2023-04-12T02:13:22.967Z,230.2308
2023-04-12T02:14:24.415Z,231.3846
2023-04-12T02:15:25.896Z,231.8462
2023-04-12T02:16:27.265Z,230.3846
2023-04-12T02:17:28.734Z,226.8462
2023-04-12T02:18:30.144Z,230.6154
2023-04-12T02:19:31.491Z,229.0769
2023-04-12T02:20:33.018Z,229.6923
2023-04-12T02:21:34.380Z,227.3846
2023-04-12T02:22:35.758Z,226.4615
2023-04-12T02:23:37.383Z,226.5385
2023-04-12T02:24:38.573Z,229.7692
2023-04-12T02:25:40.117Z,227.7692
2023-04-12T02:26:41.468Z,228.1538
2023-04-12T02:27:42.908Z,231.2308
2023-04-12T02:28:44.874Z,223.6923
2023-04-12T02:29:45.790Z,225.5385
2023-04-12T02:30:48.205Z,226.5385
2023-04-12T02:31:48.666Z,229.8462
2023-04-12T02:32:50.033Z,226.5385
2023-04-12T02:33:51.382Z,226.9231
2023-04-12T02:34:52.788Z,225.0769
2023-04-12T02:35:54.335Z,224.3077
2023-04-12T02:36:55.836Z,226.5385
2023-04-12T02:37:57.202Z,225.7692
2023-04-12T02:38:58.585Z,224.0769
2023-04-12T02:39:59.931Z,223.6923
2023-04-12T02:41:01.393Z,223.0769
2023-04-12T02:42:02.893Z,228.0769
2023-04-12T02:43:04.325Z,229.6154
2023-04-12T02:44:05.637Z,225.6154
2023-04-12T02:45:07.052Z,227.5385
2023-04-12T02:46:08.510Z,226.7692
2023-04-12T02:47:09.961Z,224.3846
2023-04-12T02:48:11.310Z,226.7692
2023-04-12T02:49:12.796Z,226.1538
2023-04-12T02:50:14.965Z,225.9231
2023-04-12T02:51:15.621Z,228.0000
2023-04-12T02:52:17.062Z,227.1538
2023-04-12T02:53:18.343Z,225.0000
2023-04-12T02:54:19.925Z,224.9231
2023-04-12T02:55:21.256Z,223.6154
2023-04-12T02:56:22.685Z,222.9231
2023-04-12T02:57:24.613Z,226.2308
2023-04-12T02:58:25.504Z,229.2308
2023-04-12T02:59:26.940Z,230.8462
2023-04-12T03:00:28.349Z,230.0769
2023-04-12T03:01:29.873Z,233.8462
2023-04-12T03:02:31.443Z,233.9231
2023-04-12T03:03:32.797Z,233.9231
2023-04-12T03:04:34.188Z,238.0769
2023-04-12T03:05:35.461Z,239.0000
2023-04-12T03:06:36.907Z,237.9231
2023-04-12T03:07:39.967Z,234.6154
2023-04-12T03:08:39.711Z,240.1538
2023-04-12T03:09:41.277Z,238.4615
2023-04-12T03:10:42.583Z,236.5385
2023-04-12T03:11:43.974Z,239.5385
2023-04-12T03:12:45.485Z,238.1538
2023-04-12T03:13:46.891Z,237.1538
2023-04-12T03:14:48.382Z,243.1538
2023-04-12T03:15:50.525Z,241.0769
2023-04-12T03:16:51.089Z,241.1538
2023-04-12T03:17:52.723Z,241.6923
2023-04-12T03:18:53.968Z,240.2308
2023-04-12T03:19:55.385Z,239.3846
2023-04-12T03:20:56.805Z,244.1538
2023-04-12T03:21:58.147Z,240.0769
2023-04-12T03:22:59.650Z,241.7692
2023-04-12T03:24:01.117Z,242.4615
2023-04-12T03:25:02.450Z,245.1538
2023-04-12T03:26:03.913Z,244.9231
2023-04-12T03:27:05.243Z,244.6154
2023-04-12T03:28:06.765Z,246.0000
2023-04-12T03:29:08.906Z,247.1538
2023-04-12T03:30:09.550Z,244.8462
2023-04-12T03:31:11.014Z,240.9231
2023-04-12T03:32:12.409Z,245.5385
2023-04-12T03:33:13.990Z,244.9231
2023-04-12T03:34:15.168Z,246.0769
2023-04-12T03:35:16.590Z,247.5385
2023-04-12T03:36:18.535Z,247.0000
2023-04-12T03:37:19.706Z,244.4615
2023-04-12T03:38:21.588Z,245.3846
2023-04-12T03:39:22.588Z,245.1538
2023-04-12T03:40:23.898Z,245.6154
2023-04-12T03:41:25.307Z,248.5385
2023-04-12T03:42:32.899Z,246.5385
2023-04-12T03:43:28.211Z,246.8462
2023-04-12T03:44:29.537Z,247.3077
2023-04-12T03:45:31.042Z,247.3077
2023-04-12T03:46:32.673Z,251.8462
2023-04-12T03:47:33.940Z,246.0769
2023-04-12T03:48:35.385Z,248.8462
2023-04-12T03:49:36.636Z,249.6923
2023-04-12T03:50:38.119Z,249.3846
2023-04-12T03:51:39.539Z,251.3846
2023-04-12T03:52:40.945Z,245.7692
2023-04-12T03:53:43.434Z,246.3077
2023-04-12T03:54:43.841Z,251.4615
2023-04-12T03:55:45.261Z,249.7692
2023-04-12T03:56:46.570Z,247.3846
2023-04-12T03:57:48.284Z,253.0000
2023-04-12T03:58:49.577Z,251.6923
2023-04-12T03:59:50.947Z,251.6923
2023-04-12T04:00:52.386Z,251.0769
2023-04-12T04:01:53.798Z,250.1538
2023-04-12T04:02:55.247Z,250.6154
2023-04-12T04:03:57.146Z,246.4615
2023-04-12T04:04:58.144Z,254.0769
2023-04-12T04:05:59.485Z,254.0769
2023-04-12T04:07:00.865Z,253.0000
2023-04-12T04:08:02.478Z,251.4615
2023-04-12T04:09:03.823Z,252.8462
2023-04-12T04:10:05.136Z,253.4615
2023-04-12T04:11:08.497Z,251.1538
2023-04-12T04:12:08.010Z,254.0000
2023-04-12T04:13:09.430Z,256.1538
2023-04-12T04:14:10.914Z,255.3077
2023-04-12T04:15:12.280Z,258.4615
2023-04-12T04:16:13.776Z,258.0000
2023-04-12T04:17:16.073Z,256.9231
2023-04-12T04:18:16.571Z,261.8462
2023-04-12T04:19:18.048Z,258.6923
2023-04-12T04:20:19.433Z,258.2308
2023-04-12T04:21:20.710Z,256.4615
2023-04-12T04:22:22.321Z,259.6923
2023-04-12T04:23:23.705Z,262.0000
2023-04-12T04:24:25.208Z,258.3846
2023-04-12T04:25:26.602Z,262.7692
2023-04-12T04:26:27.987Z,261.2308
2023-04-12T04:27:29.452Z,260.9231
2023-04-12T04:28:30.836Z,264.8462
2023-04-12T04:29:32.328Z,262.0769
2023-04-12T04:30:33.997Z,261.3077
2023-04-12T04:31:35.071Z,259.9231
2023-04-12T04:32:36.536Z,263.0769
2023-04-12T04:33:38.028Z,262.1538
2023-04-12T04:34:39.350Z,261.9231
2023-04-12T04:35:40.768Z,260.0000
2023-04-12T04:36:42.249Z,263.0769
2023-04-12T04:37:43.536Z,262.7692
2023-04-12T04:38:45.017Z,261.3846
2023-04-12T04:39:46.500Z,260.4615
2023-04-12T04:40:48.000Z,262.7692
2023-04-12T04:41:49.344Z,259.8462
2023-04-12T04:42:50.734Z,262.2308
2023-04-12T04:43:52.147Z,260.8462
2023-04-12T04:44:53.641Z,261.8462
2023-04-12T04:45:55.090Z,259.6923
2023-04-12T04:46:56.471Z,261.0000
2023-04-12T04:47:57.949Z,259.4615
2023-04-12T04:48:59.354Z,263.3077
2023-04-12T04:50:01.048Z,260.3077
2023-04-12T04:51:02.164Z,260.7692
2023-04-12T04:52:03.530Z,264.6923
2023-04-12T04:53:05.058Z,263.8462
2023-04-12T04:54:06.424Z,263.1538
2023-04-12T04:55:09.845Z,259.2308
2023-04-12T04:56:09.276Z,264.2308
2023-04-12T04:57:10.668Z,263.3846
2023-04-12T04:58:12.133Z,261.0000
2023-04-12T04:59:13.747Z,264.2308
2023-04-12T05:00:15.017Z,263.7692
2023-04-12T05:01:16.577Z,263.6154
2023-04-12T05:02:17.846Z,260.4615
2023-04-12T05:03:19.378Z,258.2308
2023-04-12T05:04:20.634Z,258.6923
2023-04-12T05:05:22.143Z,258.3077
2023-04-12T05:06:23.504Z,264.6154
2023-04-12T05:07:25.021Z,265.8462
2023-04-12T05:08:26.372Z,266.3846
2023-04-12T05:09:27.758Z,268.0000
2023-04-12T05:10:29.593Z,267.6923
2023-04-12T05:11:30.535Z,265.9231
2023-04-12T05:12:32.024Z,264.0000
2023-04-12T05:13:33.656Z,266.2308
2023-04-12T05:14:45.857Z,264.4615
2023-04-12T05:15:36.329Z,268.5385
2023-04-12T05:16:38.117Z,267.5385
2023-04-12T05:17:39.229Z,270.7692
2023-04-12T05:18:40.587Z,270.7692
2023-04-12T05:19:42.025Z,268.3077
2023-04-12T05:20:43.452Z,268.8462
2023-04-12T05:21:44.950Z,272.8462
2023-04-12T05:22:46.290Z,272.3077
2023-04-12T05:23:47.689Z,273.3077
2023-04-12T05:24:49.271Z,275.2308
2023-04-12T05:25:50.567Z,279.2308
2023-04-12T05:26:52.143Z,279.0769
2023-04-12T05:27:53.375Z,282.7692
2023-04-12T05:28:54.904Z,281.5385
2023-04-12T05:29:56.235Z,275.8462
2023-04-12T05:30:57.787Z,273.6923
2023-04-12T05:31:59.195Z,277.5385
2023-04-12T05:33:00.761Z,277.6923
2023-04-12T05:34:02.013Z,284.0769
2023-04-12T05:35:03.439Z,282.9231
2023-04-12T05:36:04.903Z,282.4615
2023-04-12T05:37:06.305Z,277.6923
2023-04-12T05:38:07.742Z,276.8462
2023-04-12T05:39:09.103Z,280.1538
2023-04-12T05:40:10.576Z,285.2308
2023-04-12T05:41:12.086Z,288.6923
2023-04-12T05:42:13.616Z,289.3846
2023-04-12T05:43:14.763Z,288.5385
2023-04-12T05:44:16.249Z,281.1538
2023-04-12T05:45:17.908Z,287.3846
2023-04-12T05:46:19.256Z,290.0000
2023-04-12T05:47:20.610Z,291.9231
2023-04-12T05:48:22.081Z,292.1538
2023-04-12T05:49:23.453Z,291.0000
2023-04-12T05:50:24.818Z,287.7692
2023-04-12T05:51:39.993Z,291.0000
2023-04-12T05:52:27.831Z,290.0000
2023-04-12T05:53:29.206Z,295.3077
2023-04-12T05:54:30.659Z,298.0000
2023-04-12T05:55:32.156Z,294.2308
2023-04-12T05:56:33.753Z,292.5385
2023-04-12T05:57:34.952Z,290.9231
2023-04-12T05:58:36.310Z,294.1538
2023-04-12T05:59:37.853Z,297.6923
2023-04-12T06:00:39.229Z,299.7692
2023-04-12T06:01:40.762Z,300.1538
2023-04-12T06:02:42.310Z,297.1538
2023-04-12T06:03:43.686Z,297.1538
2023-04-12T06:04:50.616Z,299.0000
2023-04-12T06:05:46.438Z,302.4615
2023-04-12T06:06:47.883Z,305.4615
2023-04-12T06:07:49.362Z,305.7692
2023-04-12T06:08:50.652Z,302.9231
2023-04-12T06:09:52.101Z,301.9231
2023-04-12T06:10:53.488Z,299.8462
2023-04-12T06:11:54.993Z,309.1538
2023-04-12T06:12:56.344Z,307.3077
2023-04-12T06:13:57.768Z,314.4615
2023-04-12T06:14:59.246Z,302.7692
2023-04-12T06:16:00.583Z,306.3077
2023-04-12T06:17:02.271Z,307.4615
2023-04-12T06:18:03.577Z,313.8462
2023-04-12T06:19:04.912Z,315.2308
2023-04-12T06:20:06.418Z,309.3077
2023-04-12T06:21:07.850Z,312.3077
2023-04-12T06:22:09.370Z,310.6154
2023-04-12T06:23:10.775Z,312.1538
2023-04-12T06:24:12.108Z,317.3077
2023-04-12T06:25:13.547Z,318.6923
2023-04-12T06:26:16.636Z,318.4615
2023-04-12T06:27:16.418Z,313.3077
2023-04-12T06:28:17.804Z,316.6923
2023-04-12T06:29:19.216Z,315.7692
2023-04-12T06:30:20.603Z,317.5385
2023-04-12T06:31:22.037Z,317.7692
2023-04-12T06:32:23.519Z,318.3077
2023-04-12T06:33:24.893Z,320.5385
2023-04-12T06:34:26.323Z,321.4615
2023-04-12T06:35:27.739Z,322.6154
2023-04-12T06:36:29.214Z,321.3846
2023-04-12T06:37:30.653Z,323.6154
2023-04-12T06:38:31.996Z,321.2308
2023-04-12T06:39:33.441Z,317.2308
2023-04-12T06:40:34.867Z,319.3846
2023-04-12T06:41:36.276Z,323.0769
2023-04-12T06:42:37.878Z,327.8462
2023-04-12T06:43:39.568Z,324.0769
2023-04-12T06:44:40.584Z,326.5385
2023-04-12T06:45:42.051Z,325.3846
2023-04-12T06:46:43.527Z,327.1538
2023-04-12T06:47:44.840Z,328.2308
2023-04-12T06:48:46.269Z,334.6154
2023-04-12T06:49:47.698Z,332.6923
2023-04-12T06:50:49.136Z,331.4615
2023-04-12T06:51:50.511Z,329.8462
2023-04-12T06:52:52.111Z,337.3846
2023-04-12T06:53:53.615Z,336.6154
2023-04-12T06:54:54.924Z,337.7692
2023-04-12T06:55:56.313Z,334.2308
2023-04-12T06:56:57.793Z,332.8462
2023-04-12T06:57:59.233Z,335.0000
2023-04-12T06:59:00.802Z,338.0769
2023-04-12T07:00:02.001Z,339.1538
2023-04-12T07:01:03.452Z,342.6923
2023-04-12T07:02:04.990Z,341.6923
2023-04-12T07:03:06.367Z,338.5385
2023-04-12T07:04:07.767Z,337.8462
2023-04-12T07:05:09.268Z,344.5385
2023-04-12T07:06:23.697Z,347.0000
2023-04-12T07:07:12.017Z,345.3846
2023-04-12T07:08:13.517Z,346.8462
2023-04-12T07:09:14.885Z,347.6923
2023-04-12T07:10:16.297Z,346.2308
2023-04-12T07:11:21.618Z,353.2308
2023-04-12T07:12:19.280Z,351.9231
2023-04-12T07:13:20.648Z,356.3846
2023-04-12T07:14:21.990Z,350.6923
2023-04-12T07:15:23.435Z,350.2308
2023-04-12T07:16:24.818Z,352.3077
2023-04-12T07:17:26.296Z,353.6154
2023-04-12T07:18:27.704Z,353.3077
2023-04-12T07:19:29.193Z,354.2308
2023-04-12T07:20:30.576Z,356.1538
2023-04-12T07:21:32.288Z,356.5385
2023-04-12T07:22:33.421Z,355.2308
2023-04-12T07:23:34.860Z,356.2308
2023-04-12T07:24:36.255Z,359.6923
2023-04-12T07:25:37.785Z,361.5385
2023-04-12T07:26:39.141Z,360.9231
2023-04-12T07:27:40.531Z,358.1538
2023-04-12T07:28:42.414Z,360.2308
2023-04-12T07:29:44.133Z,364.4615
2023-04-12T07:30:44.794Z,363.6923
2023-04-12T07:31:47.072Z,363.4615
2023-04-12T07:32:47.675Z,356.9231
2023-04-12T07:33:49.237Z,360.3077
2023-04-12T07:34:50.490Z,364.3077
2023-04-12T07:35:51.985Z,367.6923
2023-04-12T07:36:53.339Z,363.0769
2023-04-12T07:37:54.830Z,363.0000
2023-04-12T07:38:56.581Z,357.3077
2023-04-12T07:39:57.670Z,359.5385
2023-04-12T07:40:59.131Z,362.8462
2023-04-12T07:42:00.470Z,362.4615
2023-04-12T07:43:01.969Z,363.0000
2023-04-12T07:44:03.594Z,366.4615
2023-04-12T07:45:04.783Z,358.6154
2023-04-12T07:46:06.183Z,366.1538
2023-04-12T07:47:07.589Z,366.3846
2023-04-12T07:48:09.018Z,367.1538
2023-04-12T07:49:10.443Z,365.1538
2023-04-12T07:50:13.258Z,364.6154
2023-04-12T07:51:13.316Z,359.3846
2023-04-12T07:52:14.754Z,363.1538
2023-04-12T07:53:16.152Z,366.1538
2023-04-12T07:54:17.604Z,367.4615
2023-04-12T07:55:19.148Z,366.4615
2023-04-12T07:56:20.478Z,361.9231
2023-04-12T07:57:21.830Z,360.1538
2023-04-12T07:58:23.283Z,360.3846
2023-04-12T07:59:24.803Z,368.5385
2023-04-12T08:00:26.198Z,363.6154
2023-04-12T08:01:27.597Z,361.0769
2023-04-12T08:02:29.472Z,360.5385
2023-04-12T08:03:30.511Z,357.3077
2023-04-12T08:04:31.871Z,364.3077
2023-04-12T08:05:33.354Z,363.6923
2023-04-12T08:06:35.002Z,361.1538
2023-04-12T08:07:36.096Z,359.9231
2023-04-12T08:08:37.605Z,355.3077
2023-04-12T08:09:38.888Z,358.2308
2023-04-12T08:10:40.492Z,357.9231
2023-04-12T08:11:41.746Z,362.5385
2023-04-12T08:12:43.198Z,361.0769
2023-04-12T08:13:44.578Z,359.0000
2023-04-12T08:14:46.026Z,361.5385
2023-04-12T08:15:47.812Z,364.7692
2023-04-12T08:16:49.009Z,363.3846
2023-04-12T08:17:50.345Z,367.6154
2023-04-12T08:18:51.725Z,362.9231
2023-04-12T08:19:53.161Z,364.0000
2023-04-12T08:20:54.675Z,358.3077
2023-04-12T08:21:56.105Z,362.0769
2023-04-12T08:22:57.514Z,363.6923
2023-04-12T08:23:59.111Z,364.5385
2023-04-12T08:25:00.377Z,364.8462
2023-04-12T08:26:01.745Z,359.9231
2023-04-12T08:27:03.069Z,355.2308
2023-04-12T08:28:04.574Z,362.4615
2023-04-12T08:29:06.045Z,366.6154
2023-04-12T08:30:07.423Z,370.1538
2023-04-12T08:31:08.945Z,379.9231
2023-04-12T08:32:10.310Z,369.7692
2023-04-12T08:33:11.777Z,377.0000
2023-04-12T08:34:13.151Z,371.9231
2023-04-12T08:35:14.646Z,377.5385
2023-04-12T08:36:16.040Z,381.6154
2023-04-12T08:37:17.402Z,380.6923
2023-04-12T08:38:18.921Z,374.7692
2023-04-12T08:39:20.348Z,374.6154
2023-04-12T08:40:21.691Z,376.8462
2023-04-12T08:41:23.291Z,382.4615
2023-04-12T08:42:24.590Z,383.3846
2023-04-12T08:43:26.014Z,383.6154
2023-04-12T08:44:27.433Z,372.2308
2023-04-12T08:45:28.930Z,378.6923
2023-04-12T08:46:30.410Z,382.5385
2023-04-12T08:47:31.705Z,387.4615
2023-04-12T08:48:33.158Z,414.5385
2023-04-12T08:49:34.431Z,434.9231
2023-04-12T08:50:36.044Z,425.3846
2023-04-12T08:51:37.449Z,417.6154
2023-04-12T08:52:38.840Z,434.6154
2023-04-12T08:53:40.336Z,439.0769
2023-04-12T08:54:41.782Z,436.3077
2023-04-12T08:55:43.126Z,433.4615
2023-04-12T08:56:44.620Z,432.1538
2023-04-12T08:57:45.946Z,428.6923
2023-04-12T08:58:47.423Z,435.2308
2023-04-12T08:59:48.783Z,439.0769
2023-04-12T09:00:50.283Z,436.7692
2023-04-12T09:01:51.789Z,429.7692
2023-04-12T09:02:53.313Z,424.0769
2023-04-12T09:03:54.487Z,426.1538
2023-04-12T09:04:56.097Z,428.3077
2023-04-12T09:05:57.426Z,426.3846
2023-04-12T09:06:58.788Z,425.1538
2023-04-12T09:08:00.193Z,423.3077
2023-04-12T09:09:01.660Z,421.0769
2023-04-12T09:10:03.095Z,427.8462
2023-04-12T09:11:04.475Z,436.3846
2023-04-12T09:12:05.980Z,433.3846
2023-04-12T09:13:07.655Z,432.8462
2023-04-12T09:14:08.735Z,433.0769
2023-04-12T09:15:10.168Z,432.1538
2023-04-12T09:16:12.196Z,438.0000
2023-04-12T09:17:13.032Z,435.0769
2023-04-12T09:18:16.723Z,435.9231
2023-04-12T09:19:15.928Z,431.5385
2023-04-12T09:20:18.215Z,431.8462
2023-04-12T09:21:18.753Z,426.5385
2023-04-12T09:22:20.161Z,434.3846
2023-04-12T09:23:21.570Z,434.9231
2023-04-12T09:24:22.968Z,432.8462
2023-04-12T09:25:24.480Z,426.6923
2023-04-12T09:26:25.768Z,419.7692
2023-04-12T09:27:27.311Z,421.0000
2023-04-12T09:28:28.685Z,426.2308
2023-04-12T09:29:30.152Z,427.6154
2023-04-12T09:30:31.462Z,432.0769
2023-04-12T09:31:33.000Z,421.6154
2023-04-12T09:32:34.337Z,421.3846
2023-04-12T09:33:36.572Z,436.0000
2023-04-12T09:34:37.211Z,432.3846
2023-04-12T09:35:38.684Z,432.7692
2023-04-12T09:36:40.063Z,424.9231
2023-04-12T09:37:41.429Z,420.5385
2023-04-12T09:38:43.499Z,420.6923
2023-04-12T09:39:44.286Z,428.8462
2023-04-12T09:40:45.745Z,433.0769
2023-04-12T09:41:47.154Z,427.8462
2023-04-12T09:42:48.560Z,424.0769
2023-04-12T09:43:50.027Z,421.0769
2023-04-12T09:44:51.384Z,421.7692
2023-04-12T09:45:52.880Z,424.0769
2023-04-12T09:46:54.398Z,428.2308
2023-04-12T09:47:55.857Z,432.4615
2023-04-12T09:48:57.308Z,438.2308
2023-04-12T09:49:58.526Z,438.4615
2023-04-12T09:51:00.298Z,430.3846
2023-04-12T09:52:01.467Z,438.9231
2023-04-12T09:53:02.881Z,433.6154
2023-04-12T09:54:04.514Z,433.7692
2023-04-12T09:55:05.771Z,440.3846
2023-04-12T09:56:07.201Z,441.1538
2023-04-12T09:57:08.641Z,440.0000
2023-04-12T09:58:10.037Z,441.6154
2023-04-12T09:59:11.507Z,438.2308
2023-04-12T10:00:12.865Z,434.2308
2023-04-12T10:01:15.862Z,433.1538
2023-04-12T10:02:15.807Z,423.3077
2023-04-12T10:03:17.222Z,427.7692
2023-04-12T10:04:18.820Z,428.4615
2023-04-12T10:05:20.151Z,425.7692
2023-04-12T10:06:21.894Z,424.8462
2023-04-12T10:07:22.847Z,414.6154
2023-04-12T10:08:24.406Z,411.9231
2023-04-12T10:09:25.762Z,409.2308
2023-04-12T10:10:27.113Z,413.9231
2023-04-12T10:11:28.530Z,413.6154
2023-04-12T10:12:29.826Z,414.0000
2023-04-12T10:13:31.348Z,410.0769
2023-04-12T10:14:32.825Z,398.4615
2023-04-12T10:15:34.275Z,399.5385
2023-04-12T10:16:35.691Z,404.3846
2023-04-12T10:17:37.100Z,406.2308
2023-04-12T10:18:38.494Z,406.4615
2023-04-12T10:19:39.974Z,399.3077
2023-04-12T10:20:41.338Z,392.2308
2023-04-12T10:21:42.776Z,388.5385
2023-04-12T10:22:44.110Z,396.1538
2023-04-12T10:23:45.708Z,400.2308
2023-04-12T10:24:47.147Z,398.6923
2023-04-12T10:25:48.425Z,391.4615
2023-04-12T10:26:49.883Z,383.2308
2023-04-12T10:27:51.260Z,384.2308
2023-04-12T10:28:52.761Z,390.7692
2023-04-12T10:29:54.130Z,393.1538
2023-04-12T10:30:55.547Z,392.6154
2023-04-12T10:31:56.953Z,390.7692
2023-04-12T10:32:58.501Z,387.2308
2023-04-12T10:33:59.749Z,384.1538
2023-04-12T10:35:01.337Z,383.3846
2023-04-12T10:36:02.658Z,394.8462
2023-04-12T10:37:04.106Z,391.3077
2023-04-12T10:38:05.501Z,386.6154
2023-04-12T10:39:07.675Z,384.1538
2023-04-12T10:40:08.369Z,382.3077
2023-04-12T10:41:09.791Z,388.2308
2023-04-12T10:42:11.174Z,390.1538
2023-04-12T10:43:12.579Z,384.8462
2023-04-12T10:44:14.012Z,384.2308
2023-04-12T10:45:15.513Z,380.0000
2023-04-12T10:46:16.881Z,384.0000
2023-04-12T10:47:18.343Z,388.9231
2023-04-12T10:48:19.718Z,390.8462
2023-04-12T10:49:21.209Z,389.5385
2023-04-12T10:50:23.059Z,384.6154
2023-04-12T10:51:23.921Z,381.1538
2023-04-12T10:52:25.361Z,383.6154
2023-04-12T10:53:26.767Z,392.2308
2023-04-12T10:54:28.335Z,393.5385
2023-04-12T10:55:29.641Z,386.7692
2023-04-12T10:56:32.268Z,383.5385
2023-04-12T10:57:32.431Z,382.5385
2023-04-12T10:58:33.973Z,385.7692
2023-04-12T10:59:47.251Z,388.4615
2023-04-12T11:00:36.898Z,384.8462
2023-04-12T11:01:39.137Z,382.6923
2023-04-12T11:02:39.664Z,381.0769
2023-04-12T11:03:41.086Z,382.3077
2023-04-12T11:04:42.483Z,385.1538
2023-04-12T11:05:44.587Z,390.6154
2023-04-12T11:06:45.319Z,389.0000
2023-04-12T11:07:46.621Z,378.3846
2023-04-12T11:08:48.253Z,386.6923
2023-04-12T11:09:49.606Z,384.3846
2023-04-12T11:10:51.151Z,391.7692
2023-04-12T11:11:52.573Z,389.0000
2023-04-12T11:12:53.779Z,388.3077
2023-04-12T11:13:55.292Z,386.3077
2023-04-12T11:14:56.682Z,384.7692
2023-04-12T11:15:58.189Z,382.4615
2023-04-12T11:16:59.616Z,390.4615
2023-04-12T11:18:00.986Z,394.0769
2023-04-12T11:19:02.427Z,390.6154
2023-04-12T11:20:03.904Z,388.3077
2023-04-12T11:21:05.314Z,388.0000
2023-04-12T11:22:06.694Z,385.7692
2023-04-12T11:23:09.947Z,389.7692
2023-04-12T11:24:09.511Z,402.0000
2023-04-12T11:25:10.916Z,404.3846
2023-04-12T11:26:12.486Z,399.3077
2023-04-12T11:27:13.679Z,403.5385
2023-04-12T11:28:28.088Z,400.6154
2023-04-12T11:29:16.669Z,406.0769
2023-04-12T11:30:17.996Z,421.6154
2023-04-12T11:31:19.574Z,426.6923
2023-04-12T11:32:20.968Z,414.3077
2023-04-12T11:33:22.354Z,410.0769
2023-04-12T11:34:23.814Z,410.8462
2023-04-12T11:35:25.268Z,416.8462
2023-04-12T11:36:26.693Z,427.0000
2023-04-12T11:37:28.134Z,430.8462
2023-04-12T11:38:29.552Z,433.9231
2023-04-12T11:39:32.012Z,427.2308
2023-04-12T11:40:32.479Z,437.6154
2023-04-12T11:41:33.861Z,447.6923
2023-04-12T11:42:35.234Z,440.6923
2023-04-12T11:43:36.660Z,444.1538
2023-04-12T11:44:52.514Z,443.0000
2023-04-12T11:45:39.546Z,439.0000
2023-04-12T11:46:40.990Z,465.6154
2023-04-12T11:47:42.349Z,2048.7693
2023-04-12T11:48:43.752Z,1297.2307
2023-04-12T11:49:45.077Z,685.5385
2023-04-12T11:50:51.790Z,652.3846
2023-04-12T11:51:49.711Z,624.4615
2023-04-12T11:52:49.561Z,648.1539
2023-04-12T11:53:50.805Z,632.1539
2023-04-12T11:54:52.265Z,613.5385
2023-04-12T11:55:53.756Z,603.3846
2023-04-12T11:56:55.239Z,589.7692
2023-04-12T11:57:56.635Z,565.7692
2023-04-12T11:58:57.914Z,588.5385
2023-04-12T11:59:59.542Z,577.9231
2023-04-12T12:01:00.937Z,572.3846